sensor_id;sensor_type;location;lat;lon;timestamp;pressure;altitude;pressure_sealevel;temperature;humidity
68654;BME280;55636;51.108;13.622;2023-04-26T00:00:24;100209.00;;;6.11;48.66
68654;BME280;55636;51.108;13.622;2023-04-26T00:01:27;100213.66;;;6.11;48.73
68654;BME280;55636;51.108;13.622;2023-04-26T00:02:30;100211.75;;;6.11;48.79
68654;BME280;55636;51.108;13.622;2023-04-26T00:03:34;100213.66;;;6.11;48.77
68654;BME280;55636;51.108;13.622;2023-04-26T00:04:37;100210.91;;;6.11;48.71
68654;BME280;55636;51.108;13.622;2023-04-26T00:05:40;100208.41;;;6.09;48.82
68654;BME280;55636;51.108;13.622;2023-04-26T00:06:42;100214.50;;;6.11;48.81
68654;BME280;55636;51.108;13.622;2023-04-26T00:07:44;100211.16;;;6.09;48.90
68654;BME280;55636;51.108;13.622;2023-04-26T00:08:47;100217.47;;;6.10;48.79
68654;BME280;55636;51.108;13.622;2023-04-26T00:09:50;100217.47;;;6.10;48.88
68654;BME280;55636;51.108;13.622;2023-04-26T00:10:55;100215.81;;;6.09;48.87
68654;BME280;55636;51.108;13.622;2023-04-26T00:11:58;100217.69;;;6.08;48.89
68654;BME280;55636;51.108;13.622;2023-04-26T00:13:00;100218.56;;;6.09;48.91
68654;BME280;55636;51.108;13.622;2023-04-26T00:14:02;100225.91;;;6.08;48.91
68654;BME280;55636;51.108;13.622;2023-04-26T00:15:05;100223.19;;;6.08;49.04
68654;BME280;55636;51.108;13.622;2023-04-26T00:16:08;100217.94;;;6.06;48.89
68654;BME280;55636;51.108;13.622;2023-04-26T00:17:11;100224.28;;;6.07;49.09
68654;BME280;55636;51.108;13.622;2023-04-26T00:18:13;100223.41;;;6.06;49.07
68654;BME280;55636;51.108;13.622;2023-04-26T00:19:15;100224.28;;;6.07;49.13
68654;BME280;55636;51.108;13.622;2023-04-26T00:20:20;100222.84;;;6.04;49.17
68654;BME280;55636;51.108;13.622;2023-04-26T00:21:23;100227.47;;;6.04;49.15
68654;BME280;55636;51.108;13.622;2023-04-26T00:22:25;100231.28;;;6.03;49.15
68654;BME280;55636;51.108;13.622;2023-04-26T00:23:29;100232.94;;;6.04;49.11
68654;BME280;55636;51.108;13.622;2023-04-26T00:24:33;100228.53;;;6.03;49.17
68654;BME280;55636;51.108;13.622;2023-04-26T00:25:36;100227.69;;;6.02;49.27
68654;BME280;55636;51.108;13.622;2023-04-26T00:26:38;100228.53;;;6.03;49.33
68654;BME280;55636;51.108;13.622;2023-04-26T00:27:40;100226.03;;;6.01;49.28
68654;BME280;55636;51.108;13.622;2023-04-26T00:28:43;100228.75;;;6.01;49.21
68654;BME280;55636;51.108;13.622;2023-04-26T00:29:45;100228.19;;;5.99;49.25
68654;BME280;55636;51.108;13.622;2023-04-26T00:30:47;100228.19;;;5.99;49.36
68654;BME280;55636;51.108;13.622;2023-04-26T00:31:50;100230.91;;;5.99;49.33
68654;BME280;55636;51.108;13.622;2023-04-26T00:32:52;100224.59;;;5.99;49.36
68654;BME280;55636;51.108;13.622;2023-04-26T00:33:55;100233.91;;;5.98;49.42
68654;BME280;55636;51.108;13.622;2023-04-26T00:34:57;100228.63;;;5.96;49.61
68654;BME280;55636;51.108;13.622;2023-04-26T00:35:59;100229.72;;;5.95;49.51
68654;BME280;55636;51.108;13.622;2023-04-26T00:37:03;100227.19;;;5.94;49.57
68654;BME280;55636;51.108;13.622;2023-04-26T00:38:06;100231.84;;;5.93;49.51
68654;BME280;55636;51.108;13.622;2023-04-26T00:39:09;100232.09;;;5.92;49.63
68654;BME280;55636;51.108;13.622;2023-04-26T00:40:12;100234.81;;;5.92;49.73
68654;BME280;55636;51.108;13.622;2023-04-26T00:41:15;100236.94;;;5.89;49.60
68654;BME280;55636;51.108;13.622;2023-04-26T00:42:17;100229.78;;;5.88;49.68
68654;BME280;55636;51.108;13.622;2023-04-26T00:43:20;100238.00;;;5.88;49.70
68654;BME280;55636;51.108;13.622;2023-04-26T00:44:22;100244.59;;;5.87;49.78
68654;BME280;55636;51.108;13.622;2023-04-26T00:45:25;100242.06;;;5.86;49.80
68654;BME280;55636;51.108;13.622;2023-04-26T00:46:28;100237.44;;;5.86;49.81
68654;BME280;55636;51.108;13.622;2023-04-26T00:47:32;100235.13;;;5.83;49.84
68654;BME280;55636;51.108;13.622;2023-04-26T00:48:35;100242.53;;;5.83;49.78
68654;BME280;55636;51.108;13.622;2023-04-26T00:49:39;100242.78;;;5.81;49.79
68654;BME280;55636;51.108;13.622;2023-04-26T00:50:41;100243.00;;;5.80;49.82
68654;BME280;55636;51.108;13.622;2023-04-26T00:51:45;100243.22;;;5.78;49.90
68654;BME280;55636;51.108;13.622;2023-04-26T00:52:49;100246.19;;;5.77;49.98
68654;BME280;55636;51.108;13.622;2023-04-26T00:53:51;100242.00;;;5.74;49.96
68654;BME280;55636;51.108;13.622;2023-04-26T00:54:54;100248.59;;;5.73;49.87
68654;BME280;55636;51.108;13.622;2023-04-26T00:55:57;100248.78;;;5.71;49.89
68654;BME280;55636;51.108;13.622;2023-04-26T00:57:01;100253.69;;;5.69;49.99
68654;BME280;55636;51.108;13.622;2023-04-26T00:58:03;100250.31;;;5.67;49.90
68654;BME280;55636;51.108;13.622;2023-04-26T00:59:05;100242.34;;;5.66;49.98
68654;BME280;55636;51.108;13.622;2023-04-26T01:00:08;100252.47;;;5.65;50.04
68654;BME280;55636;51.108;13.622;2023-04-26T01:01:11;100247.44;;;5.62;50.04
68654;BME280;55636;51.108;13.622;2023-04-26T01:02:15;100247.66;;;5.61;49.99
68654;BME280;55636;51.108;13.622;2023-04-26T01:03:18;100247.91;;;5.59;50.04
68654;BME280;55636;51.108;13.622;2023-04-26T01:04:21;100242.66;;;5.57;50.14
68654;BME280;55636;51.108;13.622;2023-04-26T01:05:27;100248.34;;;5.56;50.07
68654;BME280;55636;51.108;13.622;2023-04-26T01:06:33;100243.97;;;5.55;50.13
68654;BME280;55636;51.108;13.622;2023-04-26T01:07:36;100248.00;;;5.52;50.26
68654;BME280;55636;51.108;13.622;2023-04-26T01:08:39;100241.91;;;5.50;50.10
68654;BME280;55636;51.108;13.622;2023-04-26T01:09:43;100252.25;;;5.48;50.28
68654;BME280;55636;51.108;13.622;2023-04-26T01:10:49;100252.47;;;5.47;50.33
68654;BME280;55636;51.108;13.622;2023-04-26T01:11:52;100254.63;;;5.45;50.33
68654;BME280;55636;51.108;13.622;2023-04-26T01:12:54;100254.00;;;5.43;50.30
68654;BME280;55636;51.108;13.622;2023-04-26T01:13:59;100257.78;;;5.41;50.50
68654;BME280;55636;51.108;13.622;2023-04-26T01:15:02;100251.72;;;5.39;50.43
68654;BME280;55636;51.108;13.622;2023-04-26T01:16:06;100261.25;;;5.37;50.59
68654;BME280;55636;51.108;13.622;2023-04-26T01:17:09;100249.66;;;5.35;50.58
68654;BME280;55636;51.108;13.622;2023-04-26T01:18:14;100247.38;;;5.32;50.52
68654;BME280;55636;51.108;13.622;2023-04-26T01:19:16;100254.16;;;5.29;50.62
68654;BME280;55636;51.108;13.622;2023-04-26T01:20:19;100261.56;;;5.29;50.59
68654;BME280;55636;51.108;13.622;2023-04-26T01:21:23;100260.09;;;5.26;50.76
68654;BME280;55636;51.108;13.622;2023-04-26T01:22:26;100260.28;;;5.24;50.76
68654;BME280;55636;51.108;13.622;2023-04-26T01:23:30;100258.63;;;5.23;50.85
68654;BME280;55636;51.108;13.622;2023-04-26T01:24:34;100263.47;;;5.21;50.87
68654;BME280;55636;51.108;13.622;2023-04-26T01:25:38;100264.78;;;5.19;50.95
68654;BME280;55636;51.108;13.622;2023-04-26T01:26:40;100264.78;;;5.19;51.00
68654;BME280;55636;51.108;13.622;2023-04-26T01:27:49;100263.56;;;5.15;50.96
68654;BME280;55636;51.108;13.622;2023-04-26T01:28:53;100251.75;;;5.14;50.99
68654;BME280;55636;51.108;13.622;2023-04-26T01:29:56;100265.66;;;5.13;51.21
68654;BME280;55636;51.108;13.622;2023-04-26T01:30:58;100254.13;;;5.11;50.98
68654;BME280;55636;51.108;13.622;2023-04-26T01:32:00;100262.53;;;5.09;51.10
68654;BME280;55636;51.108;13.622;2023-04-26T01:33:03;100258.34;;;5.06;51.21
68654;BME280;55636;51.108;13.622;2023-04-26T01:34:05;100261.09;;;5.06;51.03
68654;BME280;55636;51.108;13.622;2023-04-26T01:35:08;100256.69;;;5.05;51.15
68654;BME280;55636;51.108;13.622;2023-04-26T01:36:10;100256.06;;;5.03;51.20
68654;BME280;55636;51.108;13.622;2023-04-26T01:37:12;100258.00;;;5.03;51.18
68654;BME280;55636;51.108;13.622;2023-04-26T01:38:15;100262.84;;;5.01;51.33
68654;BME280;55636;51.108;13.622;2023-04-26T01:39:19;100262.03;;;5.00;51.32
68654;BME280;55636;51.108;13.622;2023-04-26T01:40:24;100261.16;;;5.00;51.32
68654;BME280;55636;51.108;13.622;2023-04-26T01:41:26;100261.63;;;4.97;51.40
68654;BME280;55636;51.108;13.622;2023-04-26T01:42:30;100267.34;;;4.95;51.48
68654;BME280;55636;51.108;13.622;2023-04-26T01:43:33;100267.34;;;4.95;51.33
68654;BME280;55636;51.108;13.622;2023-04-26T01:44:38;100263.97;;;4.93;51.35
68654;BME280;55636;51.108;13.622;2023-04-26T01:45:40;100261.47;;;4.91;51.35
68654;BME280;55636;51.108;13.622;2023-04-26T01:47:01;100266.31;;;4.89;51.46
68654;BME280;55636;51.108;13.622;2023-04-26T01:48:05;100268.22;;;4.89;51.60
68654;BME280;55636;51.108;13.622;2023-04-26T01:49:07;100268.47;;;4.87;51.54
68654;BME280;55636;51.108;13.622;2023-04-26T01:50:10;100269.50;;;4.86;51.61
68654;BME280;55636;51.108;13.622;2023-04-26T01:51:14;100262.34;;;4.85;51.58
68654;BME280;55636;51.108;13.622;2023-04-26T01:52:16;100260.47;;;4.86;51.64
68654;BME280;55636;51.108;13.622;2023-04-26T01:53:20;100268.28;;;4.82;51.63
68654;BME280;55636;51.108;13.622;2023-04-26T01:54:22;100270.22;;;4.82;51.68
68654;BME280;55636;51.108;13.622;2023-04-26T01:55:24;100269.34;;;4.81;51.65
68654;BME280;55636;51.108;13.622;2023-04-26T01:56:26;100267.66;;;4.80;51.67
68654;BME280;55636;51.108;13.622;2023-04-26T01:57:29;100275.06;;;4.80;51.75
68654;BME280;55636;51.108;13.622;2023-04-26T01:58:32;100273.38;;;4.79;51.67
68654;BME280;55636;51.108;13.622;2023-04-26T01:59:34;100273.59;;;4.77;51.86
68654;BME280;55636;51.108;13.622;2023-04-26T02:00:37;100270.88;;;4.77;51.78
68654;BME280;55636;51.108;13.622;2023-04-26T02:01:40;100275.50;;;4.77;51.76
68654;BME280;55636;51.108;13.622;2023-04-26T02:02:44;100271.91;;;4.76;51.98
68654;BME280;55636;51.108;13.622;2023-04-26T02:03:47;100278.25;;;4.77;51.90
68654;BME280;55636;51.108;13.622;2023-04-26T02:04:53;100271.91;;;4.76;51.87
68654;BME280;55636;51.108;13.622;2023-04-26T02:05:58;100274.06;;;4.74;51.88
68654;BME280;55636;51.108;13.622;2023-04-26T02:07:02;100272.16;;;4.74;51.89
68654;BME280;55636;51.108;13.622;2023-04-26T02:08:04;100275.94;;;4.73;51.94
68654;BME280;55636;51.108;13.622;2023-04-26T02:09:07;100271.53;;;4.72;51.91
68654;BME280;55636;51.108;13.622;2023-04-26T02:10:14;100275.34;;;4.71;52.02
68654;BME280;55636;51.108;13.622;2023-04-26T02:11:16;100261.84;;;4.70;52.21
68654;BME280;55636;51.108;13.622;2023-04-26T02:12:19;100271.16;;;4.69;52.14
68654;BME280;55636;51.108;13.622;2023-04-26T02:13:21;100271.16;;;4.69;52.17
68654;BME280;55636;51.108;13.622;2023-04-26T02:14:24;100272.81;;;4.70;52.20
68654;BME280;55636;51.108;13.622;2023-04-26T02:15:26;100278.50;;;4.68;52.17
68654;BME280;55636;51.108;13.622;2023-04-26T02:16:29;100283.16;;;4.68;52.17
68654;BME280;55636;51.108;13.622;2023-04-26T02:17:33;100282.31;;;4.67;52.25
68654;BME280;55636;51.108;13.622;2023-04-26T02:18:35;100277.69;;;4.68;52.32
68654;BME280;55636;51.108;13.622;2023-04-26T02:19:37;100280.84;;;4.65;52.33
68654;BME280;55636;51.108;13.622;2023-04-26T02:20:41;100281.69;;;4.65;52.30
68654;BME280;55636;51.108;13.622;2023-04-26T02:21:54;100271.59;;;4.66;52.28
68654;BME280;55636;51.108;13.622;2023-04-26T02:22:57;100288.22;;;4.64;52.39
68654;BME280;55636;51.108;13.622;2023-04-26T02:23:59;100280.84;;;4.65;52.40
68654;BME280;55636;51.108;13.622;2023-04-26T02:25:02;100283.81;;;4.63;52.42
68654;BME280;55636;51.108;13.622;2023-04-26T02:26:04;100287.41;;;4.64;52.44
68654;BME280;55636;51.108;13.622;2023-04-26T02:27:07;100281.31;;;4.62;52.41
68654;BME280;55636;51.108;13.622;2023-04-26T02:28:09;100282.97;;;4.63;52.42
68654;BME280;55636;51.108;13.622;2023-04-26T02:29:11;100282.97;;;4.63;52.41
68654;BME280;55636;51.108;13.622;2023-04-26T02:30:14;100287.59;;;4.62;52.48
68654;BME280;55636;51.108;13.622;2023-04-26T02:31:17;100284.03;;;4.62;52.68
68654;BME280;55636;51.108;13.622;2023-04-26T02:32:21;100281.31;;;4.62;52.65
68654;BME280;55636;51.108;13.622;2023-04-26T02:33:24;100287.84;;;4.61;52.62
68654;BME280;55636;51.108;13.622;2023-04-26T02:34:26;100273.31;;;4.60;52.74
68654;BME280;55636;51.108;13.622;2023-04-26T02:35:29;100285.09;;;4.61;52.59
68654;BME280;55636;51.108;13.622;2023-04-26T02:36:32;100271.63;;;4.59;52.87
68654;BME280;55636;51.108;13.622;2023-04-26T02:37:34;100282.81;;;4.57;52.67
68654;BME280;55636;51.108;13.622;2023-04-26T02:38:38;100282.59;;;4.59;52.64
68654;BME280;55636;51.108;13.622;2023-04-26T02:39:41;100282.00;;;4.57;52.80
68654;BME280;55636;51.108;13.622;2023-04-26T02:40:44;100282.00;;;4.57;52.76
68654;BME280;55636;51.108;13.622;2023-04-26T02:41:47;100273.78;;;4.57;52.85
68654;BME280;55636;51.108;13.622;2023-04-26T02:42:49;100274.84;;;4.56;52.80
68654;BME280;55636;51.108;13.622;2023-04-26T02:43:53;100270.19;;;4.56;52.86
68654;BME280;55636;51.108;13.622;2023-04-26T02:44:55;100274.84;;;4.56;53.03
68654;BME280;55636;51.108;13.622;2023-04-26T02:45:58;100279.25;;;4.57;52.89
68654;BME280;55636;51.108;13.622;2023-04-26T02:47:04;100281.13;;;4.56;53.09
68654;BME280;55636;51.108;13.622;2023-04-26T02:48:06;100276.53;;;4.57;53.07
68654;BME280;55636;51.108;13.622;2023-04-26T02:49:09;100276.72;;;4.55;53.00
68654;BME280;55636;51.108;13.622;2023-04-26T02:50:11;100273.78;;;4.57;52.94
68654;BME280;55636;51.108;13.622;2023-04-26T02:51:13;100269.13;;;4.57;52.89
68654;BME280;55636;51.108;13.622;2023-04-26T02:52:17;100274.59;;;4.57;52.91
68654;BME280;55636;51.108;13.622;2023-04-26T02:53:22;100275.44;;;4.58;52.80
68654;BME280;55636;51.108;13.622;2023-04-26T02:54:24;100271.63;;;4.59;52.84
68654;BME280;55636;51.108;13.622;2023-04-26T02:55:27;100281.13;;;4.56;53.01
68654;BME280;55636;51.108;13.622;2023-04-26T02:56:29;100276.53;;;4.57;53.01
68654;BME280;55636;51.108;13.622;2023-04-26T02:57:32;100275.66;;;4.56;53.05
68654;BME280;55636;51.108;13.622;2023-04-26T02:58:34;100282.00;;;4.57;52.90
68654;BME280;55636;51.108;13.622;2023-04-26T02:59:37;100284.91;;;4.55;53.17
68654;BME280;55636;51.108;13.622;2023-04-26T03:00:49;100281.13;;;4.56;52.94
68654;BME280;55636;51.108;13.622;2023-04-26T03:01:52;100283.28;;;4.54;53.08
68654;BME280;55636;51.108;13.622;2023-04-26T03:02:55;100277.81;;;4.54;53.00
68654;BME280;55636;51.108;13.622;2023-04-26T03:03:58;100275.06;;;4.54;53.13
68654;BME280;55636;51.108;13.622;2023-04-26T03:05:01;100280.72;;;4.53;52.96
68654;BME280;55636;51.108;13.622;2023-04-26T03:06:04;100281.59;;;4.53;53.15
68654;BME280;55636;51.108;13.622;2023-04-26T03:07:07;100288.94;;;4.53;53.21
68654;BME280;55636;51.108;13.622;2023-04-26T03:08:11;100279.91;;;4.52;53.21
68654;BME280;55636;51.108;13.622;2023-04-26T03:09:13;100278.22;;;4.51;53.21
68654;BME280;55636;51.108;13.622;2023-04-26T03:10:15;100282.00;;;4.50;53.25
68654;BME280;55636;51.108;13.622;2023-04-26T03:11:18;100283.94;;;4.50;53.32
68654;BME280;55636;51.108;13.622;2023-04-26T03:12:20;100282.25;;;4.49;53.31
68654;BME280;55636;51.108;13.622;2023-04-26T03:13:23;100285.22;;;4.47;53.28
68654;BME280;55636;51.108;13.622;2023-04-26T03:14:27;100282.47;;;4.47;53.24
68654;BME280;55636;51.108;13.622;2023-04-26T03:15:30;100283.53;;;4.46;53.25
68654;BME280;55636;51.108;13.622;2023-04-26T03:16:40;100285.22;;;4.47;53.28
68654;BME280;55636;51.108;13.622;2023-04-26T03:17:43;100292.78;;;4.45;53.33
68654;BME280;55636;51.108;13.622;2023-04-26T03:18:46;100289.22;;;4.45;53.34
68654;BME280;55636;51.108;13.622;2023-04-26T03:19:48;100293.63;;;4.46;53.36
68654;BME280;55636;51.108;13.622;2023-04-26T03:20:52;100290.03;;;4.45;53.36
68654;BME280;55636;51.108;13.622;2023-04-26T03:21:56;100293.88;;;4.44;53.38
68654;BME280;55636;51.108;13.622;2023-04-26T03:22:58;100298.25;;;4.45;53.29
68654;BME280;55636;51.108;13.622;2023-04-26T03:24:01;100293.25;;;4.42;53.46
68654;BME280;55636;51.108;13.622;2023-04-26T03:25:05;100294.91;;;4.43;53.21
68654;BME280;55636;51.108;13.622;2023-04-26T03:26:07;100294.91;;;4.43;53.31
68654;BME280;55636;51.108;13.622;2023-04-26T03:27:10;100295.34;;;4.40;53.33
68654;BME280;55636;51.108;13.622;2023-04-26T03:28:13;100297.25;;;4.39;53.45
68654;BME280;55636;51.108;13.622;2023-04-26T03:29:16;100298.31;;;4.38;53.50
68654;BME280;55636;51.108;13.622;2023-04-26T03:30:18;100296.84;;;4.36;53.55
68654;BME280;55636;51.108;13.622;2023-04-26T03:31:20;100298.75;;;4.35;53.60
68654;BME280;55636;51.108;13.622;2023-04-26T03:32:24;100300.84;;;4.33;53.49
68654;BME280;55636;51.108;13.622;2023-04-26T03:33:26;100299.22;;;4.32;53.62
68654;BME280;55636;51.108;13.622;2023-04-26T03:34:29;100299.41;;;4.31;53.54
68654;BME280;55636;51.108;13.622;2023-04-26T03:35:31;100296.66;;;4.31;53.69
68654;BME280;55636;51.108;13.622;2023-04-26T03:36:34;100296.06;;;4.29;53.62
68654;BME280;55636;51.108;13.622;2023-04-26T03:37:39;100294.38;;;4.28;53.64
68654;BME280;55636;51.108;13.622;2023-04-26T03:38:45;100300.09;;;4.26;53.64
68654;BME280;55636;51.108;13.622;2023-04-26T03:39:49;100307.44;;;4.25;53.57
68654;BME280;55636;51.108;13.622;2023-04-26T03:40:55;100304.91;;;4.24;53.68
68654;BME280;55636;51.108;13.622;2023-04-26T03:41:58;100305.16;;;4.22;53.56
68654;BME280;55636;51.108;13.622;2023-04-26T03:43:03;100299.91;;;4.21;53.62
68654;BME280;55636;51.108;13.622;2023-04-26T03:44:05;100297.41;;;4.19;53.69
68654;BME280;55636;51.108;13.622;2023-04-26T03:45:08;100305.59;;;4.19;53.60
68654;BME280;55636;51.108;13.622;2023-04-26T03:46:11;100297.59;;;4.18;53.64
68654;BME280;55636;51.108;13.622;2023-04-26T03:47:14;100303.28;;;4.16;53.81
68654;BME280;55636;51.108;13.622;2023-04-26T03:48:17;100299.09;;;4.14;53.58
68654;BME280;55636;51.108;13.622;2023-04-26T03:49:19;100309.19;;;4.13;53.72
68654;BME280;55636;51.108;13.622;2023-04-26T03:50:22;100303.97;;;4.12;53.75
68654;BME280;55636;51.108;13.622;2023-04-26T03:51:25;100305.22;;;4.09;53.83
68654;BME280;55636;51.108;13.622;2023-04-26T03:52:29;100310.06;;;4.07;53.93
68654;BME280;55636;51.108;13.622;2023-04-26T03:53:32;100306.50;;;4.06;53.87
68654;BME280;55636;51.108;13.622;2023-04-26T03:54:34;100306.72;;;4.05;53.79
68654;BME280;55636;51.108;13.622;2023-04-26T03:55:37;100311.34;;;4.04;53.90
68654;BME280;55636;51.108;13.622;2023-04-26T03:56:40;100310.75;;;4.02;53.85
68654;BME280;55636;51.108;13.622;2023-04-26T03:57:42;100311.78;;;4.01;53.94
68654;BME280;55636;51.108;13.622;2023-04-26T03:58:46;100311.16;;;3.99;53.75
68654;BME280;55636;51.108;13.622;2023-04-26T03:59:48;100311.38;;;3.98;53.85
68654;BME280;55636;51.108;13.622;2023-04-26T04:00:55;100314.34;;;3.96;53.80
68654;BME280;55636;51.108;13.622;2023-04-26T04:01:57;100323.81;;;3.94;53.90
68654;BME280;55636;51.108;13.622;2023-04-26T04:03:00;100321.06;;;3.94;53.97
68654;BME280;55636;51.108;13.622;2023-04-26T04:04:02;100320.44;;;3.91;54.04
68654;BME280;55636;51.108;13.622;2023-04-26T04:05:05;100313.31;;;3.90;53.87
68654;BME280;55636;51.108;13.622;2023-04-26T04:06:08;100317.31;;;3.88;54.04
68654;BME280;55636;51.108;13.622;2023-04-26T04:07:10;100322.78;;;3.88;54.11
68654;BME280;55636;51.108;13.622;2023-04-26T04:08:13;100318.59;;;3.85;54.05
68654;BME280;55636;51.108;13.622;2023-04-26T04:09:16;100322.16;;;3.86;53.94
68654;BME280;55636;51.108;13.622;2023-04-26T04:10:20;100320.69;;;3.83;54.08
68654;BME280;55636;51.108;13.622;2023-04-26T04:11:24;100322.59;;;3.83;54.14
68654;BME280;55636;51.108;13.622;2023-04-26T04:12:26;100333.53;;;3.83;54.07
68654;BME280;55636;51.108;13.622;2023-04-26T04:13:28;100325.53;;;3.81;54.14
68654;BME280;55636;51.108;13.622;2023-04-26T04:14:31;100317.56;;;3.80;54.22
68654;BME280;55636;51.108;13.622;2023-04-26T04:15:34;100324.06;;;3.79;54.07
68654;BME280;55636;51.108;13.622;2023-04-26T04:16:36;100330.38;;;3.79;53.98
68654;BME280;55636;51.108;13.622;2023-04-26T04:17:38;100317.78;;;3.78;54.06
68654;BME280;55636;51.108;13.622;2023-04-26T04:18:41;100319.69;;;3.78;54.06
68654;BME280;55636;51.108;13.622;2023-04-26T04:19:47;100324.28;;;3.77;54.23
68654;BME280;55636;51.108;13.622;2023-04-26T04:20:50;100330.81;;;3.76;54.20
68654;BME280;55636;51.108;13.622;2023-04-26T04:21:52;100323.69;;;3.75;54.31
68654;BME280;55636;51.108;13.622;2023-04-26T04:22:54;100331.03;;;3.74;54.13
68654;BME280;55636;51.108;13.622;2023-04-26T04:23:57;100331.88;;;3.75;54.28
68654;BME280;55636;51.108;13.622;2023-04-26T04:24:59;100326.59;;;3.73;54.22
68654;BME280;55636;51.108;13.622;2023-04-26T04:26:01;100326.84;;;3.72;54.40
68654;BME280;55636;51.108;13.622;2023-04-26T04:27:04;100326.84;;;3.72;54.26
68654;BME280;55636;51.108;13.622;2023-04-26T04:28:07;100331.47;;;3.71;54.40
68654;BME280;55636;51.108;13.622;2023-04-26T04:29:09;100327.28;;;3.69;54.41
68654;BME280;55636;51.108;13.622;2023-04-26T04:30:12;100323.28;;;3.71;54.45
68654;BME280;55636;51.108;13.622;2023-04-26T04:31:16;100330.00;;;3.69;54.41
68654;BME280;55636;51.108;13.622;2023-04-26T04:32:19;100328.97;;;3.70;54.25
68654;BME280;55636;51.108;13.622;2023-04-26T04:33:21;100330.63;;;3.71;54.31
68654;BME280;55636;51.108;13.622;2023-04-26T04:34:23;100328.09;;;3.69;54.36
68654;BME280;55636;51.108;13.622;2023-04-26T04:35:29;100320.75;;;3.70;54.28
68654;BME280;55636;51.108;13.622;2023-04-26T04:36:36;100327.88;;;3.71;54.42
68654;BME280;55636;51.108;13.622;2023-04-26T04:37:40;100327.69;;;3.72;54.49
68654;BME280;55636;51.108;13.622;2023-04-26T04:38:42;100323.06;;;3.73;54.49
68654;BME280;55636;51.108;13.622;2023-04-26T04:39:46;100329.16;;;3.75;54.42
68654;BME280;55636;51.108;13.622;2023-04-26T04:40:49;100331.44;;;3.78;54.51
68654;BME280;55636;51.108;13.622;2023-04-26T04:41:52;100328.47;;;3.80;54.56
68654;BME280;55636;51.108;13.622;2023-04-26T04:42:55;100329.94;;;3.82;54.62
68654;BME280;55636;51.108;13.622;2023-04-26T04:43:59;100339.59;;;3.85;54.57
68654;BME280;55636;51.108;13.622;2023-04-26T04:45:03;100330.13;;;3.87;54.61
68654;BME280;55636;51.108;13.622;2023-04-26T04:46:07;100343.38;;;3.90;54.57
68654;BME280;55636;51.108;13.622;2023-04-26T04:47:12;100340.22;;;3.94;54.51
68654;BME280;55636;51.108;13.622;2023-04-26T04:48:16;100335.97;;;3.98;54.48
68654;BME280;55636;51.108;13.622;2023-04-26T04:49:20;100344.38;;;4.03;54.76
68654;BME280;55636;51.108;13.622;2023-04-26T04:50:23;100341.19;;;4.06;54.73
68654;BME280;55636;51.108;13.622;2023-04-26T04:51:25;100346.84;;;4.11;54.77
68654;BME280;55636;51.108;13.622;2023-04-26T04:52:29;100344.28;;;4.16;54.75
68654;BME280;55636;51.108;13.622;2023-04-26T04:53:34;100342.78;;;4.20;54.74
68654;BME280;55636;51.108;13.622;2023-04-26T04:54:36;100342.97;;;4.25;54.72
68654;BME280;55636;51.108;13.622;2023-04-26T04:55:39;100347.59;;;4.32;54.48
68654;BME280;55636;51.108;13.622;2023-04-26T04:56:44;100343.97;;;4.38;54.47
68654;BME280;55636;51.108;13.622;2023-04-26T04:57:48;100342.25;;;4.44;54.49
68654;BME280;55636;51.108;13.622;2023-04-26T04:58:51;100335.69;;;4.51;54.43
68654;BME280;55636;51.108;13.622;2023-04-26T04:59:55;100353.94;;;4.57;54.28
68654;BME280;55636;51.108;13.622;2023-04-26T05:00:59;100342.13;;;4.64;54.18
68654;BME280;55636;51.108;13.622;2023-04-26T05:02:16;100343.53;;;4.73;54.20
68654;BME280;55636;51.108;13.622;2023-04-26T05:03:18;100342.44;;;4.81;54.09
68654;BME280;55636;51.108;13.622;2023-04-26T05:04:21;100346.78;;;4.88;53.96
68654;BME280;55636;51.108;13.622;2023-04-26T05:05:24;100351.16;;;4.96;53.97
68654;BME280;55636;51.108;13.622;2023-04-26T05:06:27;100343.47;;;5.05;53.73
68654;BME280;55636;51.108;13.622;2023-04-26T05:07:33;100340.47;;;5.13;53.59
68654;BME280;55636;51.108;13.622;2023-04-26T05:08:36;100349.44;;;5.20;53.55
68654;BME280;55636;51.108;13.622;2023-04-26T05:09:42;100350.41;;;5.33;53.41
68654;BME280;55636;51.108;13.622;2023-04-26T05:10:45;100348.22;;;5.41;53.22
68654;BME280;55636;51.108;13.622;2023-04-26T05:11:47;100347.94;;;5.50;53.11
68654;BME280;55636;51.108;13.622;2023-04-26T05:12:50;100346.78;;;5.57;53.00
68654;BME280;55636;51.108;13.622;2023-04-26T05:13:52;100348.16;;;5.67;52.84
68654;BME280;55636;51.108;13.622;2023-04-26T05:14:55;100357.75;;;5.76;52.67
68654;BME280;55636;51.108;13.622;2023-04-26T05:15:57;100354.47;;;5.86;52.54
68654;BME280;55636;51.108;13.622;2023-04-26T05:17:00;100350.38;;;5.95;52.47
68654;BME280;55636;51.108;13.622;2023-04-26T05:18:03;100357.22;;;6.04;52.23
68654;BME280;55636;51.108;13.622;2023-04-26T05:19:05;100362.13;;;6.14;52.21
68654;BME280;55636;51.108;13.622;2023-04-26T05:20:11;100356.94;;;6.24;52.10
68654;BME280;55636;51.108;13.622;2023-04-26T05:21:13;100360.78;;;6.35;51.91
68654;BME280;55636;51.108;13.622;2023-04-26T05:22:15;100353.06;;;6.44;51.69
68654;BME280;55636;51.108;13.622;2023-04-26T05:23:20;100352.28;;;6.55;51.60
68654;BME280;55636;51.108;13.622;2023-04-26T05:24:22;100361.38;;;6.68;51.44
68654;BME280;55636;51.108;13.622;2023-04-26T05:25:25;100357.22;;;6.77;51.28
68654;BME280;55636;51.108;13.622;2023-04-26T05:26:45;100356.78;;;6.92;51.06
68654;BME280;55636;51.108;13.622;2023-04-26T05:28:15;100353.00;;;7.05;50.62
68654;BME280;55636;51.108;13.622;2023-04-26T05:29:44;100351.72;;;7.19;50.20
68654;BME280;55636;51.108;13.622;2023-04-26T05:31:10;100356.97;;;7.33;50.08
68654;BME280;55636;51.108;13.622;2023-04-26T05:32:23;100350.63;;;7.44;49.91